Tabellarische Übersicht vom Sonntag, den 11.04.2021

Oder anderes Datum wählen:






max 10,1°C 94,0% 8,6°C 1010,7hPa 10,0°C 0,0km/h (0Bft) 0,0km/h 0° (N) ∑5,9l/m² 12,000klx ∑317,1min
min 3,7°C 91,0% 2,7°C 1004,8hPa 4,0°C 0,0km/h (0Bft) 0,0km/h 0° (N) ∑5,9l/m² 0,000klx ∑317,1min
Ø 6,7°C 93,0% 5,7°C 1007,0hPa 7,0°C 0,0km/h (0Bft) 0,0km/h 0° (N) ∑5,9l/m² 4,000klx ∑317,1min
Zeit Temperatur Luftfeuchte Taupunkt Luftdruck Windchill Windböen Windgeschwindigkeit Windrichtung Regen Helligkeit Regenzeit
11:40 3,7°C 93,7% 2,8°C 1010,7hPa 3,7°C 0,0km/h (0Bft) 0,0km/h 0,1l/m² 10,681klx 5,0min
11:35 3,7°C 93,7% 2,7°C 1010,6hPa 3,7°C 0,0km/h (0Bft) 0,0km/h 0,1l/m² 11,731klx 5,0min
11:30 3,7°C 93,7% 2,8°C 1010,5hPa 3,7°C 0,0km/h (0Bft) 0,0km/h 0,1l/m² 11,121klx 5,0min
11:25 3,7°C 93,8% 2,8°C 1010,4hPa 3,7°C 0,0km/h (0Bft) 0,0km/h 0,2l/m² 7,842klx 5,0min
11:20 3,7°C 93,8% 2,8°C 1010,4hPa 3,7°C 0,0km/h (0Bft) 0,0km/h 0,1l/m² 8,468klx 5,0min
11:15 3,8°C 93,8% 2,9°C 1010,4hPa 3,8°C 0,0km/h (0Bft) 0,0km/h 0,2l/m² 7,399klx 5,0min
11:10 3,7°C 93,8% 2,8°C 1010,2hPa 3,7°C 0,0km/h (0Bft) 0,0km/h 0,2l/m² 7,391klx 5,0min
11:05 3,7°C 93,8% 2,8°C 1010,2hPa 3,7°C 0,0km/h (0Bft) 0,0km/h 0,1l/m² 6,880klx 5,0min
11:00 3,7°C 93,8% 2,8°C 1010,1hPa 3,7°C 0,0km/h (0Bft) 0,0km/h 0,1l/m² 6,035klx 5,0min
10:55 3,9°C 93,8% 3,0°C 1010,0hPa 3,9°C 0,0km/h (0Bft) 0,0km/h 0,0l/m² 6,491klx 2,7min
10:50 3,8°C 93,8% 2,9°C 1010,0hPa 3,8°C 0,0km/h (0Bft) 0,0km/h 0,0l/m² 7,000klx 4,7min
10:45 3,7°C 93,9% 2,8°C 1010,0hPa 3,7°C 0,0km/h (0Bft) 0,0km/h 0,1l/m² 7,008klx 5,0min
10:40 3,8°C 93,9% 2,9°C 1009,9hPa 3,8°C 0,0km/h (0Bft) 0,0km/h 0,0l/m² 6,462klx 4,0min
10:35 3,8°C 93,9% 2,9°C 1009,8hPa 3,8°C 0,0km/h (0Bft) 0,0km/h 0,0l/m² 6,841klx 0,0min
10:30 3,8°C 93,9% 2,9°C 1009,7hPa 3,8°C 0,0km/h (0Bft) 0,0km/h 0,0l/m² 6,313klx 4,3min
10:25 3,8°C 93,9% 2,9°C 1009,6hPa 3,8°C 0,0km/h (0Bft) 0,0km/h 0,0l/m² 6,152klx 5,0min
10:20 3,7°C 94,0% 2,8°C 1009,5hPa 3,7°C 0,0km/h (0Bft) 0,0km/h 0,0l/m² 7,968klx 1,7min
10:15 3,7°C 94,0% 2,8°C 1009,4hPa 3,7°C 0,0km/h (0Bft) 0,0km/h 0,0l/m² 7,230klx 0,9min
10:10 3,8°C 94,0% 2,9°C 1009,3hPa 3,8°C 0,0km/h (0Bft) 0,0km/h 0,0l/m² 7,740klx 0,0min
10:05 3,8°C 94,1% 2,9°C 1009,3hPa 3,8°C 0,0km/h (0Bft) 0,0km/h 0,0l/m² 6,246klx 0,0min
10:00 3,8°C 94,1% 2,9°C 1009,2hPa 3,8°C 0,0km/h (0Bft) 0,0km/h 0,0l/m² 4,693klx 0,2min
09:55 3,8°C 94,2% 3,0°C 1009,1hPa 3,8°C 0,0km/h (0Bft) 0,0km/h 0,0l/m² 5,102klx 0,3min
09:50 3,9°C 94,2% 3,0°C 1009,1hPa 3,9°C 0,0km/h (0Bft) 0,0km/h 0,0l/m² 5,855klx 0,0min
09:45 3,8°C 94,2% 2,9°C 1009,0hPa 3,8°C 0,0km/h (0Bft) 0,0km/h 0,0l/m² 6,163klx 0,0min
09:40 3,7°C 94,3% 2,9°C 1008,9hPa 3,7°C 0,0km/h (0Bft) 0,0km/h 0,0l/m² 5,590klx 0,0min
09:35 3,8°C 94,3% 2,9°C 1008,8hPa 3,8°C 0,0km/h (0Bft) 0,0km/h 0,0l/m² 5,985klx 0,0min
09:30 3,8°C 94,3% 3,0°C 1008,9hPa 3,8°C 0,0km/h (0Bft) 0,0km/h 0,0l/m² 8,477klx 0,0min
09:25 3,7°C 94,4% 2,9°C 1008,9hPa 3,7°C 0,0km/h (0Bft) 0,0km/h 0,0l/m² 5,211klx 0,0min
09:20 3,7°C 94,4% 2,8°C 1008,9hPa 3,7°C 0,0km/h (0Bft) 0,0km/h 0,0l/m² 3,941klx 0,0min
09:15 3,7°C 94,4% 2,9°C 1008,9hPa 3,7°C 0,0km/h (0Bft) 0,0km/h 0,0l/m² 3,145klx 0,0min
09:10 3,7°C 94,4% 2,9°C 1008,8hPa 3,7°C 0,0km/h (0Bft) 0,0km/h 0,0l/m² 4,113klx 0,0min
09:05 3,7°C 94,4% 2,9°C 1008,7hPa 3,7°C 0,0km/h (0Bft) 0,0km/h 0,0l/m² 4,023klx 0,0min
09:00 3,7°C 94,4% 2,9°C 1008,8hPa 3,7°C 0,0km/h (0Bft) 0,0km/h 0,0l/m² 3,123klx 0,0min
08:55 3,8°C 94,4% 2,9°C 1008,7hPa 3,8°C 0,0km/h (0Bft) 0,0km/h 0,0l/m² 2,486klx 0,0min
08:50 3,8°C 94,4% 2,9°C 1008,6hPa 3,8°C 0,0km/h (0Bft) 0,0km/h 0,0l/m² 2,203klx 0,0min
08:45 3,8°C 94,3% 2,9°C 1008,6hPa 3,8°C 0,0km/h (0Bft) 0,0km/h 0,0l/m² 2,256klx 0,0min
08:40 3,8°C 94,3% 3,0°C 1008,5hPa 3,8°C 0,0km/h (0Bft) 0,0km/h 0,0l/m² 2,357klx 0,0min
08:35 3,8°C 94,3% 2,9°C 1008,4hPa 3,8°C 0,0km/h (0Bft) 0,0km/h 0,0l/m² 2,089klx 0,0min
08:30 3,8°C 94,2% 3,0°C 1008,3hPa 3,8°C 0,0km/h (0Bft) 0,0km/h 0,0l/m² 2,079klx 0,0min
08:25 3,9°C 94,2% 3,0°C 1008,2hPa 3,9°C 0,0km/h (0Bft) 0,0km/h 0,0l/m² 2,174klx 0,0min
08:20 3,9°C 94,2% 3,0°C 1008,0hPa 3,9°C 0,0km/h (0Bft) 0,0km/h 0,0l/m² 1,895klx 0,0min
08:15 3,9°C 94,1% 3,0°C 1008,0hPa 3,9°C 0,0km/h (0Bft) 0,0km/h 0,0l/m² 2,171klx 0,0min
08:10 3,9°C 94,1% 3,0°C 1007,9hPa 3,9°C 0,0km/h (0Bft) 0,0km/h 0,0l/m² 2,265klx 0,0min
08:05 3,8°C 94,1% 3,0°C 1007,8hPa 3,8°C 0,0km/h (0Bft) 0,0km/h 0,0l/m² 2,269klx 0,0min
08:00 4,0°C 94,1% 3,1°C 1007,8hPa 4,0°C 0,0km/h (0Bft) 0,0km/h 0,0l/m² 2,733klx 0,0min
07:55 4,0°C 94,0% 3,2°C 1007,7hPa 4,0°C 0,0km/h (0Bft) 0,0km/h 0,0l/m² 2,073klx 0,0min
07:50 4,1°C 94,0% 3,2°C 1007,6hPa 4,1°C 0,0km/h (0Bft) 0,0km/h 0,0l/m² 1,548klx 0,0min
07:45 4,1°C 94,0% 3,2°C 1007,6hPa 4,1°C 0,0km/h (0Bft) 0,0km/h 0,0l/m² 0,911klx 0,0min
07:40 4,2°C 94,0% 3,3°C 1007,4hPa 4,2°C 0,0km/h (0Bft) 0,0km/h 0,0l/m² 0,738klx 0,0min
07:35 4,4°C 93,9% 3,5°C 1007,3hPa 4,4°C 0,0km/h (0Bft) 0,0km/h 0,0l/m² 0,729klx 0,0min
07:30 4,5°C 93,9% 3,6°C 1007,3hPa 4,5°C 0,0km/h (0Bft) 0,0km/h 0,0l/m² 0,781klx 0,0min
07:25 4,4°C 93,9% 3,5°C 1007,1hPa 4,4°C 0,0km/h (0Bft) 0,0km/h 0,0l/m² 0,730klx 0,0min
07:20 4,4°C 93,9% 3,5°C 1007,1hPa 4,4°C 0,0km/h (0Bft) 0,0km/h 0,0l/m² 0,610klx 0,0min
07:15 4,4°C 93,9% 3,5°C 1007,0hPa 4,4°C 0,0km/h (0Bft) 0,0km/h 0,0l/m² 0,608klx 0,0min
07:10 4,8°C 93,9% 3,9°C 1006,9hPa 4,8°C 0,0km/h (0Bft) 0,0km/h 0,0l/m² 0,498klx 0,0min
07:05 4,8°C 93,9% 3,9°C 1006,7hPa 4,8°C 0,0km/h (0Bft) 0,0km/h 0,0l/m² 0,409klx 0,0min
07:00 5,0°C 93,9% 4,0°C 1006,7hPa 5,0°C 0,0km/h (0Bft) 0,0km/h 0,0l/m² 0,329klx 0,0min
06:55 5,2°C 93,8% 4,3°C 1006,7hPa 5,2°C 0,0km/h (0Bft) 0,0km/h 0,0l/m² 0,128klx 0,0min
06:50 5,3°C 93,8% 4,3°C 1006,7hPa 5,3°C 0,0km/h (0Bft) 0,0km/h 0,0l/m² 0,110klx 0,0min
06:45 5,2°C 93,8% 4,3°C 1006,6hPa 5,2°C 0,0km/h (0Bft) 0,0km/h 0,0l/m² 0,080klx 0,0min
06:40 5,2°C 93,8% 4,2°C 1006,6hPa 5,2°C 0,0km/h (0Bft) 0,0km/h 0,0l/m² 0,048klx 1,3min
06:35 5,2°C 93,7% 4,3°C 1006,5hPa 5,2°C 0,0km/h (0Bft) 0,0km/h 0,0l/m² 0,028klx 5,0min
06:30 5,3°C 93,7% 4,4°C 1006,4hPa 5,3°C 0,0km/h (0Bft) 0,0km/h 0,0l/m² 0,014klx 5,0min
06:25 5,5°C 93,7% 4,5°C 1006,5hPa 5,5°C 0,0km/h (0Bft) 0,0km/h 0,0l/m² 0,005klx 5,0min
06:20 5,7°C 93,6% 4,7°C 1006,4hPa 5,7°C 0,0km/h (0Bft) 0,0km/h 0,0l/m² 0,002klx 5,0min
06:15 5,8°C 93,6% 4,8°C 1006,3hPa 5,8°C 0,0km/h (0Bft) 0,0km/h 0,2l/m² 0,001klx 5,0min
06:10 5,8°C 93,5% 4,9°C 1006,3hPa 5,8°C 0,0km/h (0Bft) 0,0km/h 0,2l/m² 0,001klx 5,0min
06:05 6,0°C 93,4% 5,0°C 1006,3hPa 6,0°C 0,0km/h (0Bft) 0,0km/h 0,1l/m² 0,000klx 5,0min
06:00 6,0°C 93,4% 5,0°C 1006,2hPa 6,0°C 0,0km/h (0Bft) 0,0km/h 0,0l/m² 0,000klx 5,0min
05:55 6,0°C 93,3% 5,0°C 1006,1hPa 6,0°C 0,0km/h (0Bft) 0,0km/h 0,1l/m² 0,000klx 5,0min
05:50 6,2°C 93,2% 5,2°C 1006,0hPa 6,2°C 0,0km/h (0Bft) 0,0km/h 0,0l/m² 0,000klx 5,0min
05:45 6,2°C 93,2% 5,2°C 1006,0hPa 6,2°C 0,0km/h (0Bft) 0,0km/h 0,0l/m² 0,000klx 5,0min
05:40 6,3°C 93,1% 5,3°C 1006,0hPa 6,3°C 0,0km/h (0Bft) 0,0km/h 0,1l/m² 0,000klx 5,0min
05:35 6,5°C 93,1% 5,4°C 1005,9hPa 6,5°C 0,0km/h (0Bft) 0,0km/h 0,1l/m² 0,000klx 5,0min
05:30 6,7°C 93,0% 5,7°C 1005,9hPa 6,7°C 0,0km/h (0Bft) 0,0km/h 0,2l/m² 0,000klx 5,0min
05:25 6,9°C 92,9% 5,8°C 1005,8hPa 6,9°C 0,0km/h (0Bft) 0,0km/h 0,1l/m² 0,000klx 5,0min
05:20 7,2°C 92,9% 6,1°C 1005,6hPa 7,2°C 0,0km/h (0Bft) 0,0km/h 0,2l/m² 0,000klx 5,0min
05:15 7,6°C 92,7% 6,5°C 1005,5hPa 7,6°C 0,0km/h (0Bft) 0,0km/h 0,1l/m² 0,000klx 5,0min
05:10 7,8°C 92,6% 6,7°C 1005,4hPa 7,8°C 0,0km/h (0Bft) 0,0km/h 0,1l/m² 0,000klx 5,0min
05:05 7,9°C 92,6% 6,8°C 1005,3hPa 7,9°C 0,0km/h (0Bft) 0,0km/h 0,1l/m² 0,000klx 3,7min
05:00 8,0°C 92,5% 6,9°C 1005,2hPa 8,0°C 0,0km/h (0Bft) 0,0km/h 0,2l/m² 0,000klx 4,3min
04:55 8,5°C 92,5% 7,3°C 1005,2hPa 8,5°C 0,0km/h (0Bft) 0,0km/h 0,1l/m² 0,000klx 1,8min
04:50 9,2°C 92,3% 8,0°C 1005,0hPa 9,2°C 0,0km/h (0Bft) 0,0km/h 0,0l/m² 0,000klx 0,0min
04:45 9,5°C 92,3% 8,3°C 1004,9hPa 9,5°C 0,0km/h (0Bft) 0,0km/h 0,0l/m² 0,000klx 0,0min
04:40 9,5°C 92,3% 8,3°C 1004,8hPa 9,5°C 0,0km/h (0Bft) 0,0km/h 0,0l/m² 0,000klx 0,0min
04:35 9,5°C 92,3% 8,3°C 1004,8hPa 9,5°C 0,0km/h (0Bft) 0,0km/h 0,0l/m² 0,000klx 0,0min
04:30 9,5°C 92,3% 8,3°C 1004,8hPa 9,5°C 0,0km/h (0Bft) 0,0km/h 0,0l/m² 0,000klx 0,0min
04:25 9,5°C 92,3% 8,3°C 1004,8hPa 9,5°C 0,0km/h (0Bft) 0,0km/h 0,0l/m² 0,000klx 0,0min
04:20 9,5°C 92,3% 8,3°C 1004,9hPa 9,5°C 0,0km/h (0Bft) 0,0km/h 0,0l/m² 0,000klx 0,0min
04:15 9,5°C 92,3% 8,3°C 1004,9hPa 9,5°C 0,0km/h (0Bft) 0,0km/h 0,0l/m² 0,000klx 0,0min
04:10 9,5°C 92,3% 8,3°C 1005,0hPa 9,5°C 0,0km/h (0Bft) 0,0km/h 0,0l/m² 0,000klx 0,0min
04:05 9,5°C 92,3% 8,3°C 1004,9hPa 9,5°C 0,0km/h (0Bft) 0,0km/h 0,0l/m² 0,000klx 0,0min
04:00 9,4°C 92,2% 8,2°C 1004,9hPa 9,4°C 0,0km/h (0Bft) 0,0km/h 0,0l/m² 0,000klx 0,0min
03:55 9,4°C 92,3% 8,2°C 1005,0hPa 9,4°C 0,0km/h (0Bft) 0,0km/h 0,0l/m² 0,000klx 0,0min
03:50 9,4°C 92,2% 8,2°C 1005,0hPa 9,4°C 0,0km/h (0Bft) 0,0km/h 0,0l/m² 0,000klx 0,0min
03:45 9,4°C 92,2% 8,2°C 1005,1hPa 9,4°C 0,0km/h (0Bft) 0,0km/h 0,0l/m² 0,000klx 0,0min
03:40 9,4°C 92,2% 8,2°C 1005,1hPa 9,4°C 0,0km/h (0Bft) 0,0km/h 0,0l/m² 0,000klx 0,0min
03:35 9,4°C 92,2% 8,2°C 1005,1hPa 9,4°C 0,0km/h (0Bft) 0,0km/h 0,0l/m² 0,000klx 0,0min
03:30 9,4°C 92,2% 8,2°C 1005,2hPa 9,4°C 0,0km/h (0Bft) 0,0km/h 0,0l/m² 0,000klx 0,0min
03:25 9,4°C 92,3% 8,2°C 1005,2hPa 9,4°C 0,0km/h (0Bft) 0,0km/h 0,0l/m² 0,000klx 0,0min
03:20 9,5°C 92,3% 8,3°C 1005,2hPa 9,5°C 0,0km/h (0Bft) 0,0km/h 0,0l/m² 0,000klx 0,0min
03:15 9,4°C 92,3% 8,2°C 1005,2hPa 9,4°C 0,0km/h (0Bft) 0,0km/h 0,0l/m² 0,000klx 0,0min
03:10 9,5°C 92,3% 8,3°C 1005,2hPa 9,5°C 0,0km/h (0Bft) 0,0km/h 0,0l/m² 0,000klx 0,0min
03:05 9,4°C 92,3% 8,2°C 1005,3hPa 9,4°C 0,0km/h (0Bft) 0,0km/h 0,0l/m² 0,000klx 0,0min
03:00 9,5°C 92,3% 8,3°C 1005,4hPa 9,5°C 0,0km/h (0Bft) 0,0km/h 0,0l/m² 0,000klx 0,0min
02:55 9,5°C 92,3% 8,3°C 1005,5hPa 9,5°C 0,0km/h (0Bft) 0,0km/h 0,0l/m² 0,000klx 0,0min
02:50 9,5°C 92,3% 8,3°C 1005,5hPa 9,5°C 0,0km/h (0Bft) 0,0km/h 0,0l/m² 0,000klx 0,0min
02:45 9,5°C 92,3% 8,3°C 1005,5hPa 9,5°C 0,0km/h (0Bft) 0,0km/h 0,0l/m² 0,000klx 4,3min
02:40 9,5°C 92,3% 8,3°C 1005,5hPa 9,5°C 0,0km/h (0Bft) 0,0km/h 0,0l/m² 0,000klx 5,0min
02:35 9,5°C 92,3% 8,3°C 1005,6hPa 9,5°C 0,0km/h (0Bft) 0,0km/h 0,0l/m² 0,000klx 5,0min
02:30 9,5°C 92,3% 8,3°C 1005,6hPa 9,5°C 0,0km/h (0Bft) 0,0km/h 0,0l/m² 0,000klx 5,0min
02:25 9,5°C 92,3% 8,3°C 1005,7hPa 9,5°C 0,0km/h (0Bft) 0,0km/h 0,0l/m² 0,000klx 5,0min
02:20 9,5°C 92,3% 8,3°C 1005,7hPa 9,5°C 0,0km/h (0Bft) 0,0km/h 0,0l/m² 0,000klx 5,0min
02:15 9,5°C 92,3% 8,3°C 1005,8hPa 9,5°C 0,0km/h (0Bft) 0,0km/h 0,0l/m² 0,000klx 4,4min
02:10 9,5°C 92,2% 8,3°C 1005,8hPa 9,5°C 0,0km/h (0Bft) 0,0km/h 0,0l/m² 0,000klx 0,0min
02:05 9,5°C 92,2% 8,3°C 1005,8hPa 9,5°C 0,0km/h (0Bft) 0,0km/h 0,0l/m² 0,000klx 0,0min
02:00 9,5°C 92,2% 8,3°C 1005,9hPa 9,5°C 0,0km/h (0Bft) 0,0km/h 0,0l/m² 0,000klx 2,2min
01:55 9,5°C 92,2% 8,3°C 1005,9hPa 9,5°C 0,0km/h (0Bft) 0,0km/h 0,0l/m² 0,000klx 5,0min
01:50 9,5°C 92,2% 8,3°C 1006,0hPa 9,5°C 0,0km/h (0Bft) 0,0km/h 0,0l/m² 0,000klx 5,0min
01:45 9,5°C 92,2% 8,3°C 1006,0hPa 9,5°C 0,0km/h (0Bft) 0,0km/h 0,0l/m² 0,000klx 5,0min
01:40 9,6°C 92,1% 8,3°C 1006,1hPa 9,6°C 0,0km/h (0Bft) 0,0km/h 0,1l/m² 0,000klx 5,0min
01:35 9,6°C 92,1% 8,4°C 1006,1hPa 9,6°C 0,0km/h (0Bft) 0,0km/h 0,2l/m² 0,000klx 5,0min
01:30 9,6°C 92,1% 8,4°C 1006,2hPa 9,6°C 0,0km/h (0Bft) 0,0km/h 0,2l/m² 0,000klx 5,0min
01:25 9,6°C 92,1% 8,4°C 1006,2hPa 9,6°C 0,0km/h (0Bft) 0,0km/h 0,2l/m² 0,000klx 5,0min
01:20 9,6°C 92,1% 8,4°C 1006,3hPa 9,6°C 0,0km/h (0Bft) 0,0km/h 0,1l/m² 0,000klx 5,0min
01:15 9,6°C 92,1% 8,4°C 1006,3hPa 9,6°C 0,0km/h (0Bft) 0,0km/h 0,2l/m² 0,000klx 5,0min
01:10 9,6°C 92,1% 8,4°C 1006,3hPa 9,6°C 0,0km/h (0Bft) 0,0km/h 0,1l/m² 0,000klx 5,0min
01:05 9,6°C 92,0% 8,4°C 1006,3hPa 9,6°C 0,0km/h (0Bft) 0,0km/h 0,0l/m² 0,000klx 5,0min
01:00 9,7°C 92,0% 8,4°C 1006,3hPa 9,7°C 0,0km/h (0Bft) 0,0km/h 0,1l/m² 0,000klx 5,0min
00:55 9,7°C 92,0% 8,4°C 1006,3hPa 9,7°C 0,0km/h (0Bft) 0,0km/h 0,1l/m² 0,000klx 3,1min
00:50 9,7°C 92,0% 8,4°C 1006,3hPa 9,7°C 0,0km/h (0Bft) 0,0km/h 0,0l/m² 0,000klx 0,0min
00:45 9,6°C 91,9% 8,4°C 1006,3hPa 9,6°C 0,0km/h (0Bft) 0,0km/h 0,0l/m² 0,000klx 0,0min
00:40 9,7°C 91,9% 8,4°C 1006,4hPa 9,7°C 0,0km/h (0Bft) 0,0km/h 0,0l/m² 0,000klx 3,3min
00:35 9,7°C 91,8% 8,4°C 1006,3hPa 9,7°C 0,0km/h (0Bft) 0,0km/h 0,0l/m² 0,000klx 5,0min
00:30 9,8°C 91,7% 8,5°C 1006,4hPa 9,8°C 0,0km/h (0Bft) 0,0km/h 0,0l/m² 0,000klx 5,0min
00:25 9,8°C 91,7% 8,5°C 1006,4hPa 9,8°C 0,0km/h (0Bft) 0,0km/h 0,1l/m² 0,000klx 5,0min
00:20 9,9°C 91,6% 8,6°C 1006,4hPa 9,9°C 0,0km/h (0Bft) 0,0km/h 0,0l/m² 0,000klx 5,0min
00:15 9,9°C 91,4% 8,6°C 1006,5hPa 9,9°C 0,0km/h (0Bft) 0,0km/h 0,1l/m² 0,000klx 5,0min
00:10 10,0°C 91,1% 8,6°C 1006,5hPa 10,0°C 0,0km/h (0Bft) 0,0km/h 0,1l/m² 0,000klx 5,0min
00:05 10,0°C 90,9% 8,6°C 1006,4hPa 10,0°C 0,0km/h (0Bft) 0,0km/h 0,1l/m² 0,000klx 5,0min
00:00 10,1°C 90,5% 8,6°C 1006,4hPa 10,1°C 0,0km/h (0Bft) 0,0km/h 0,0l/m² 0,000klx 5,0min

Aktuelle Wetterdaten

11.04.2021 11:40 Uhr